sensor_id;sensor_type;location;lat;lon;timestamp;pressure;altitude;pressure_sealevel;temperature;humidity
36598;BME280;22607;49.550;11.940;2023-09-30T00:00:07;97488.97;;;17.21;100.00
36598;BME280;22607;49.550;11.940;2023-09-30T00:02:35;97485.09;;;17.24;100.00
36598;BME280;22607;49.550;11.940;2023-09-30T00:05:02;97485.88;;;17.17;100.00
36598;BME280;22607;49.550;11.940;2023-09-30T00:07:30;97483.03;;;17.19;100.00
36598;BME280;22607;49.550;11.940;2023-09-30T00:09:57;97479.13;;;17.15;100.00
36598;BME280;22607;49.550;11.940;2023-09-30T00:12:26;97499.16;;;17.24;100.00
36598;BME280;22607;49.550;11.940;2023-09-30T00:14:53;97494.31;;;17.28;100.00
36598;BME280;22607;49.550;11.940;2023-09-30T00:17:20;97501.66;;;17.32;100.00
36598;BME280;22607;49.550;11.940;2023-09-30T00:19:46;97493.09;;;17.30;100.00
36598;BME280;22607;49.550;11.940;2023-09-30T00:22:13;97499.84;;;17.33;100.00
36598;BME280;22607;49.550;11.940;2023-09-30T00:24:40;97499.22;;;17.38;100.00
36598;BME280;22607;49.550;11.940;2023-09-30T00:27:07;97494.72;;;17.31;100.00
36598;BME280;22607;49.550;11.940;2023-09-30T00:29:34;97490.41;;;17.24;100.00
36598;BME280;22607;49.550;11.940;2023-09-30T00:32:02;97496.28;;;17.19;100.00
36598;BME280;22607;49.550;11.940;2023-09-30T00:34:28;97492.44;;;17.28;100.00
36598;BME280;22607;49.550;11.940;2023-09-30T00:36:55;97500.00;;;17.25;100.00
36598;BME280;22607;49.550;11.940;2023-09-30T00:39:22;97497.13;;;17.19;100.00
36598;BME280;22607;49.550;11.940;2023-09-30T00:41:49;97494.28;;;17.21;100.00
36598;BME280;22607;49.550;11.940;2023-09-30T00:44:15;97495.09;;;17.22;100.00
36598;BME280;22607;49.550;11.940;2023-09-30T00:46:42;97503.81;;;17.09;100.00
36598;BME280;22607;49.550;11.940;2023-09-30T00:49:10;97500.69;;;16.98;100.00
36598;BME280;22607;49.550;11.940;2023-09-30T00:51:38;97509.53;;;17.12;100.00
36598;BME280;22607;49.550;11.940;2023-09-30T00:54:05;97508.44;;;17.00;100.00
36598;BME280;22607;49.550;11.940;2023-09-30T00:56:33;97503.13;;;16.93;100.00
36598;BME280;22607;49.550;11.940;2023-09-30T00:59:00;97495.97;;;17.00;100.00
36598;BME280;22607;49.550;11.940;2023-09-30T01:01:27;97491.31;;;17.02;100.00
36598;BME280;22607;49.550;11.940;2023-09-30T01:03:54;97486.13;;;16.87;100.00
36598;BME280;22607;49.550;11.940;2023-09-30T01:06:22;97489.97;;;16.78;100.00
36598;BME280;22607;49.550;11.940;2023-09-30T01:08:49;97500.19;;;16.88;100.00
36598;BME280;22607;49.550;11.940;2023-09-30T01:11:15;97492.84;;;16.83;100.00
36598;BME280;22607;49.550;11.940;2023-09-30T01:13:42;97491.44;;;16.87;100.00
36598;BME280;22607;49.550;11.940;2023-09-30T01:16:11;97503.06;;;16.86;100.00
36598;BME280;22607;49.550;11.940;2023-09-30T01:18:41;97499.75;;;16.77;100.00
36598;BME280;22607;49.550;11.940;2023-09-30T01:21:09;97500.56;;;16.78;100.00
36598;BME280;22607;49.550;11.940;2023-09-30T01:23:37;97503.84;;;16.80;100.00
36598;BME280;22607;49.550;11.940;2023-09-30T01:26:08;97497.09;;;16.77;100.00
36598;BME280;22607;49.550;11.940;2023-09-30T01:28:36;97502.25;;;16.86;100.00
36598;BME280;22607;49.550;11.940;2023-09-30T01:31:02;97511.03;;;16.86;100.00
36598;BME280;22607;49.550;11.940;2023-09-30T01:33:30;97514.50;;;16.87;100.00
36598;BME280;22607;49.550;11.940;2023-09-30T01:35:58;97512.47;;;16.89;100.00
36598;BME280;22607;49.550;11.940;2023-09-30T01:38:25;97507.97;;;16.89;100.00
36598;BME280;22607;49.550;11.940;2023-09-30T01:40:51;97499.81;;;16.91;100.00
36598;BME280;22607;49.550;11.940;2023-09-30T01:43:18;97510.63;;;16.89;100.00
36598;BME280;22607;49.550;11.940;2023-09-30T01:45:45;97505.69;;;16.79;100.00
36598;BME280;22607;49.550;11.940;2023-09-30T01:48:12;97505.47;;;16.74;100.00
36598;BME280;22607;49.550;11.940;2023-09-30T01:50:39;97499.72;;;16.71;100.00
36598;BME280;22607;49.550;11.940;2023-09-30T01:53:06;97494.03;;;16.74;100.00
36598;BME280;22607;49.550;11.940;2023-09-30T01:55:33;97497.31;;;16.83;100.00
36598;BME280;22607;49.550;11.940;2023-09-30T01:58:00;97503.22;;;16.78;100.00
36598;BME280;22607;49.550;11.940;2023-09-30T02:00:27;97508.81;;;16.90;100.00
36598;BME280;22607;49.550;11.940;2023-09-30T02:02:55;97506.94;;;16.84;100.00
36598;BME280;22607;49.550;11.940;2023-09-30T02:05:23;97499.38;;;16.80;100.00
36598;BME280;22607;49.550;11.940;2023-09-30T02:07:51;97498.50;;;16.73;100.00
36598;BME280;22607;49.550;11.940;2023-09-30T02:10:18;97496.53;;;16.82;100.00
36598;BME280;22607;49.550;11.940;2023-09-30T02:12:46;97495.97;;;16.58;100.00
36598;BME280;22607;49.550;11.940;2023-09-30T02:15:13;97503.34;;;16.63;100.00
36598;BME280;22607;49.550;11.940;2023-09-30T02:17:40;97504.63;;;16.74;100.00
36598;BME280;22607;49.550;11.940;2023-09-30T02:20:12;97503.81;;;16.73;100.00
36598;BME280;22607;49.550;11.940;2023-09-30T02:22:42;97499.97;;;16.83;100.00
36598;BME280;22607;49.550;11.940;2023-09-30T02:25:11;97502.38;;;16.71;100.00
36598;BME280;22607;49.550;11.940;2023-09-30T02:27:40;97512.75;;;16.65;100.00
36598;BME280;22607;49.550;11.940;2023-09-30T02:30:11;97498.72;;;16.78;100.00
36598;BME280;22607;49.550;11.940;2023-09-30T02:32:41;97517.06;;;16.73;100.00
36598;BME280;22607;49.550;11.940;2023-09-30T02:35:08;97513.63;;;16.73;100.00
36598;BME280;22607;49.550;11.940;2023-09-30T02:37:37;97515.75;;;16.91;100.00
36598;BME280;22607;49.550;11.940;2023-09-30T02:40:05;97509.22;;;16.93;100.00
36598;BME280;22607;49.550;11.940;2023-09-30T02:42:41;97506.97;;;16.90;100.00
36598;BME280;22607;49.550;11.940;2023-09-30T02:45:08;97513.00;;;17.06;100.00
36598;BME280;22607;49.550;11.940;2023-09-30T02:47:36;97505.91;;;16.85;100.00
36598;BME280;22607;49.550;11.940;2023-09-30T02:50:06;97510.47;;;16.98;100.00
36598;BME280;22607;49.550;11.940;2023-09-30T02:52:34;97513.47;;;16.88;100.00
36598;BME280;22607;49.550;11.940;2023-09-30T02:55:01;97503.03;;;16.79;100.00
36598;BME280;22607;49.550;11.940;2023-09-30T02:57:29;97505.34;;;16.96;100.00
36598;BME280;22607;49.550;11.940;2023-09-30T02:59:56;97510.06;;;16.94;100.00
36598;BME280;22607;49.550;11.940;2023-09-30T03:02:24;97514.94;;;16.97;100.00
36598;BME280;22607;49.550;11.940;2023-09-30T03:04:50;97521.38;;;17.10;100.00
36598;BME280;22607;49.550;11.940;2023-09-30T03:07:19;97521.38;;;17.10;100.00
36598;BME280;22607;49.550;11.940;2023-09-30T03:09:47;97531.97;;;17.10;100.00
36598;BME280;22607;49.550;11.940;2023-09-30T03:12:14;97537.91;;;17.05;100.00
36598;BME280;22607;49.550;11.940;2023-09-30T03:14:41;97548.13;;;17.15;100.00
36598;BME280;22607;49.550;11.940;2023-09-30T03:17:09;97543.63;;;17.09;100.00
36598;BME280;22607;49.550;11.940;2023-09-30T03:19:38;97539.97;;;17.16;100.00
36598;BME280;22607;49.550;11.940;2023-09-30T03:22:05;97542.06;;;17.21;100.00
36598;BME280;22607;49.550;11.940;2023-09-30T03:24:40;97531.03;;;17.24;100.00
36598;BME280;22607;49.550;11.940;2023-09-30T03:27:08;97541.44;;;17.26;100.00
36598;BME280;22607;49.550;11.940;2023-09-30T03:29:38;97526.75;;;17.23;100.00
36598;BME280;22607;49.550;11.940;2023-09-30T03:32:05;97532.66;;;17.25;100.00
36598;BME280;22607;49.550;11.940;2023-09-30T03:34:32;97523.28;;;17.29;100.00
36598;BME280;22607;49.550;11.940;2023-09-30T03:36:58;97522.28;;;17.30;100.00
36598;BME280;22607;49.550;11.940;2023-09-30T03:39:25;97532.22;;;17.15;100.00
36598;BME280;22607;49.550;11.940;2023-09-30T03:41:55;97525.06;;;17.15;100.00
36598;BME280;22607;49.550;11.940;2023-09-30T03:44:22;97532.44;;;17.20;100.00
36598;BME280;22607;49.550;11.940;2023-09-30T03:46:52;97529.00;;;17.26;100.00
36598;BME280;22607;49.550;11.940;2023-09-30T03:49:19;97523.31;;;16.94;100.00
36598;BME280;22607;49.550;11.940;2023-09-30T03:51:48;97529.56;;;17.15;100.00
36598;BME280;22607;49.550;11.940;2023-09-30T03:54:18;97527.91;;;17.14;100.00
36598;BME280;22607;49.550;11.940;2023-09-30T03:56:45;97528.13;;;17.12;100.00
36598;BME280;22607;49.550;11.940;2023-09-30T03:59:13;97526.72;;;17.16;100.00
36598;BME280;22607;49.550;11.940;2023-09-30T04:01:41;97533.38;;;17.05;100.00
36598;BME280;22607;49.550;11.940;2023-09-30T04:04:09;97542.81;;;17.15;100.00
36598;BME280;22607;49.550;11.940;2023-09-30T04:06:37;97540.81;;;17.17;100.00
36598;BME280;22607;49.550;11.940;2023-09-30T04:09:07;97540.63;;;17.18;100.00
36598;BME280;22607;49.550;11.940;2023-09-30T04:11:37;97544.09;;;17.26;100.00
36598;BME280;22607;49.550;11.940;2023-09-30T04:14:07;97550.25;;;17.26;100.00
36598;BME280;22607;49.550;11.940;2023-09-30T04:16:35;97561.47;;;17.28;100.00
36598;BME280;22607;49.550;11.940;2023-09-30T04:19:02;97557.56;;;17.24;100.00
36598;BME280;22607;49.550;11.940;2023-09-30T04:21:28;97557.75;;;17.23;100.00
36598;BME280;22607;49.550;11.940;2023-09-30T04:23:56;97562.88;;;17.24;100.00
36598;BME280;22607;49.550;11.940;2023-09-30T04:26:24;97569.81;;;17.25;100.00
36598;BME280;22607;49.550;11.940;2023-09-30T04:28:52;97567.75;;;17.21;100.00
36598;BME280;22607;49.550;11.940;2023-09-30T04:31:20;97572.28;;;17.27;100.00
36598;BME280;22607;49.550;11.940;2023-09-30T04:33:49;97562.09;;;17.30;100.00
36598;BME280;22607;49.550;11.940;2023-09-30T04:36:19;97562.81;;;17.11;100.00
36598;BME280;22607;49.550;11.940;2023-09-30T04:38:47;97564.50;;;17.25;100.00
36598;BME280;22607;49.550;11.940;2023-09-30T04:41:14;97555.91;;;17.16;100.00
36598;BME280;22607;49.550;11.940;2023-09-30T04:43:42;97561.28;;;17.30;100.00
36598;BME280;22607;49.550;11.940;2023-09-30T04:46:10;97562.72;;;17.32;100.00
36598;BME280;22607;49.550;11.940;2023-09-30T04:48:40;97564.75;;;17.30;100.00
36598;BME280;22607;49.550;11.940;2023-09-30T04:51:08;97560.44;;;17.29;100.00
36598;BME280;22607;49.550;11.940;2023-09-30T04:53:36;97565.97;;;17.28;100.00
36598;BME280;22607;49.550;11.940;2023-09-30T04:56:04;97576.97;;;17.25;100.00
36598;BME280;22607;49.550;11.940;2023-09-30T04:58:31;97576.81;;;17.33;100.00
36598;BME280;22607;49.550;11.940;2023-09-30T05:00:58;97589.59;;;17.23;100.00
36598;BME280;22607;49.550;11.940;2023-09-30T05:03:25;97585.69;;;17.12;100.00
36598;BME280;22607;49.550;11.940;2023-09-30T05:05:52;97583.88;;;17.19;100.00
36598;BME280;22607;49.550;11.940;2023-09-30T05:08:23;97580.63;;;17.17;100.00
36598;BME280;22607;49.550;11.940;2023-09-30T05:10:50;97586.72;;;17.17;100.00
36598;BME280;22607;49.550;11.940;2023-09-30T05:13:17;97589.13;;;17.05;100.00
36598;BME280;22607;49.550;11.940;2023-09-30T05:15:44;97580.09;;;17.00;100.00
36598;BME280;22607;49.550;11.940;2023-09-30T05:18:11;97580.28;;;16.98;100.00
36598;BME280;22607;49.550;11.940;2023-09-30T05:20:38;97583.53;;;17.00;100.00
36598;BME280;22607;49.550;11.940;2023-09-30T05:23:05;97579.03;;;16.94;100.00
36598;BME280;22607;49.550;11.940;2023-09-30T05:25:33;97588.63;;;16.66;100.00
36598;BME280;22607;49.550;11.940;2023-09-30T05:28:00;97593.22;;;16.79;100.00
36598;BME280;22607;49.550;11.940;2023-09-30T05:30:26;97600.63;;;16.91;100.00
36598;BME280;22607;49.550;11.940;2023-09-30T05:32:53;97608.97;;;16.88;100.00
36598;BME280;22607;49.550;11.940;2023-09-30T05:35:20;97595.13;;;16.92;100.00
36598;BME280;22607;49.550;11.940;2023-09-30T05:37:49;97604.78;;;17.00;100.00
36598;BME280;22607;49.550;11.940;2023-09-30T05:40:21;97604.78;;;17.00;100.00
36598;BME280;22607;49.550;11.940;2023-09-30T05:42:54;97596.19;;;16.98;100.00
36598;BME280;22607;49.550;11.940;2023-09-30T05:45:22;97599.41;;;16.93;100.00
36598;BME280;22607;49.550;11.940;2023-09-30T05:47:50;97598.44;;;17.01;100.00
36598;BME280;22607;49.550;11.940;2023-09-30T05:50:19;97599.00;;;16.90;100.00
36598;BME280;22607;49.550;11.940;2023-09-30T05:52:55;97606.28;;;16.81;100.00
36598;BME280;22607;49.550;11.940;2023-09-30T05:55:22;97613.28;;;16.89;100.00
36598;BME280;22607;49.550;11.940;2023-09-30T05:57:52;97621.94;;;16.47;100.00
36598;BME280;22607;49.550;11.940;2023-09-30T06:00:19;97636.66;;;16.50;100.00
36598;BME280;22607;49.550;11.940;2023-09-30T06:02:52;97635.19;;;16.25;100.00
36598;BME280;22607;49.550;11.940;2023-09-30T06:05:19;97645.03;;;16.32;100.00
36598;BME280;22607;49.550;11.940;2023-09-30T06:07:46;97647.00;;;16.23;100.00
36598;BME280;22607;49.550;11.940;2023-09-30T06:10:13;97660.09;;;16.09;100.00
36598;BME280;22607;49.550;11.940;2023-09-30T06:12:50;97659.84;;;16.04;100.00
36598;BME280;22607;49.550;11.940;2023-09-30T06:15:22;97657.78;;;15.99;100.00
36598;BME280;22607;49.550;11.940;2023-09-30T06:17:53;97660.28;;;16.08;100.00
36598;BME280;22607;49.550;11.940;2023-09-30T06:20:20;97666.78;;;16.05;100.00
36598;BME280;22607;49.550;11.940;2023-09-30T06:22:49;97659.16;;;15.95;100.00
36598;BME280;22607;49.550;11.940;2023-09-30T06:25:16;97672.00;;;15.98;100.00
36598;BME280;22607;49.550;11.940;2023-09-30T06:27:45;97673.00;;;15.97;100.00
36598;BME280;22607;49.550;11.940;2023-09-30T06:30:13;97680.84;;;16.06;100.00
36598;BME280;22607;49.550;11.940;2023-09-30T06:32:43;97681.78;;;15.83;100.00
36598;BME280;22607;49.550;11.940;2023-09-30T06:35:10;97682.78;;;15.82;100.00
36598;BME280;22607;49.550;11.940;2023-09-30T06:37:38;97672.66;;;15.85;100.00
36598;BME280;22607;49.550;11.940;2023-09-30T06:40:10;97680.41;;;15.87;100.00
36598;BME280;22607;49.550;11.940;2023-09-30T06:42:38;97692.00;;;16.01;100.00
36598;BME280;22607;49.550;11.940;2023-09-30T06:45:07;97703.22;;;15.88;100.00
36598;BME280;22607;49.550;11.940;2023-09-30T06:47:34;97698.16;;;15.71;100.00
36598;BME280;22607;49.550;11.940;2023-09-30T06:50:04;97711.22;;;15.58;100.00
36598;BME280;22607;49.550;11.940;2023-09-30T06:52:37;97717.66;;;15.70;100.00
36598;BME280;22607;49.550;11.940;2023-09-30T06:55:08;97715.59;;;15.66;100.00
36598;BME280;22607;49.550;11.940;2023-09-30T06:57:37;97720.59;;;15.75;100.00
36598;BME280;22607;49.550;11.940;2023-09-30T07:00:12;97722.78;;;15.57;100.00
36598;BME280;22607;49.550;11.940;2023-09-30T07:02:40;97736.69;;;15.59;100.00
36598;BME280;22607;49.550;11.940;2023-09-30T07:05:10;97738.41;;;15.52;100.00
36598;BME280;22607;49.550;11.940;2023-09-30T07:07:37;97746.72;;;15.48;100.00
36598;BME280;22607;49.550;11.940;2023-09-30T07:10:06;97749.47;;;15.55;100.00
36598;BME280;22607;49.550;11.940;2023-09-30T07:12:34;97754.56;;;15.57;100.00
36598;BME280;22607;49.550;11.940;2023-09-30T07:15:06;97758.75;;;15.66;100.00
36598;BME280;22607;49.550;11.940;2023-09-30T07:17:36;97755.13;;;15.67;100.00
36598;BME280;22607;49.550;11.940;2023-09-30T07:20:03;97757.56;;;15.69;100.00
36598;BME280;22607;49.550;11.940;2023-09-30T07:22:32;97745.88;;;15.78;100.00
36598;BME280;22607;49.550;11.940;2023-09-30T07:25:17;97747.53;;;15.79;100.00
36598;BME280;22607;49.550;11.940;2023-09-30T07:27:45;97747.28;;;15.59;100.00
36598;BME280;22607;49.550;11.940;2023-09-30T07:30:15;97754.00;;;15.46;100.00
36598;BME280;22607;49.550;11.940;2023-09-30T07:32:43;97758.59;;;15.53;100.00
36598;BME280;22607;49.550;11.940;2023-09-30T07:35:11;97769.25;;;15.74;100.00
36598;BME280;22607;49.550;11.940;2023-09-30T07:37:38;97774.28;;;15.54;100.00
36598;BME280;22607;49.550;11.940;2023-09-30T07:40:05;97771.09;;;15.59;100.00
36598;BME280;22607;49.550;11.940;2023-09-30T07:42:33;97759.84;;;15.57;100.00
36598;BME280;22607;49.550;11.940;2023-09-30T07:45:04;97773.56;;;15.75;100.00
36598;BME280;22607;49.550;11.940;2023-09-30T07:47:32;97769.34;;;15.81;100.00
36598;BME280;22607;49.550;11.940;2023-09-30T07:50:01;97779.22;;;15.87;100.00
36598;BME280;22607;49.550;11.940;2023-09-30T07:52:36;97777.88;;;15.77;100.00
36598;BME280;22607;49.550;11.940;2023-09-30T07:55:03;97780.31;;;15.78;100.00
36598;BME280;22607;49.550;11.940;2023-09-30T07:57:31;97769.41;;;15.96;100.00
36598;BME280;22607;49.550;11.940;2023-09-30T07:59:59;97780.06;;;16.18;100.00
36598;BME280;22607;49.550;11.940;2023-09-30T08:02:28;97789.00;;;16.32;100.00
36598;BME280;22607;49.550;11.940;2023-09-30T08:05:00;97784.06;;;16.29;100.00
36598;BME280;22607;49.550;11.940;2023-09-30T08:07:27;97785.03;;;16.43;100.00
36598;BME280;22607;49.550;11.940;2023-09-30T08:09:53;97787.16;;;16.33;100.00
36598;BME280;22607;49.550;11.940;2023-09-30T08:12:20;97789.97;;;16.46;100.00
36598;BME280;22607;49.550;11.940;2023-09-30T08:14:47;97790.88;;;16.38;100.00
36598;BME280;22607;49.550;11.940;2023-09-30T08:17:15;97789.03;;;16.02;100.00
36598;BME280;22607;49.550;11.940;2023-09-30T08:19:43;97799.25;;;15.90;100.00
36598;BME280;22607;49.550;11.940;2023-09-30T08:22:10;97798.34;;;15.98;100.00
36598;BME280;22607;49.550;11.940;2023-09-30T08:24:37;97811.50;;;16.06;100.00
36598;BME280;22607;49.550;11.940;2023-09-30T08:27:03;97808.56;;;16.01;100.00
36598;BME280;22607;49.550;11.940;2023-09-30T08:29:35;97811.97;;;16.10;100.00
36598;BME280;22607;49.550;11.940;2023-09-30T08:32:02;97817.63;;;16.07;100.00
36598;BME280;22607;49.550;11.940;2023-09-30T08:34:29;97815.06;;;16.13;100.00
36598;BME280;22607;49.550;11.940;2023-09-30T08:36:57;97816.34;;;16.18;100.00
36598;BME280;22607;49.550;11.940;2023-09-30T08:39:27;97811.56;;;16.13;100.00
36598;BME280;22607;49.550;11.940;2023-09-30T08:41:55;97813.41;;;16.27;100.00
36598;BME280;22607;49.550;11.940;2023-09-30T08:44:22;97808.25;;;16.41;100.00
36598;BME280;22607;49.550;11.940;2023-09-30T08:46:50;97816.41;;;16.24;100.00
36598;BME280;22607;49.550;11.940;2023-09-30T08:49:19;97810.34;;;16.46;100.00
36598;BME280;22607;49.550;11.940;2023-09-30T08:51:48;97811.56;;;16.43;100.00
36598;BME280;22607;49.550;11.940;2023-09-30T08:54:16;97819.00;;;16.54;100.00
36598;BME280;22607;49.550;11.940;2023-09-30T08:56:47;97824.06;;;16.49;100.00
36598;BME280;22607;49.550;11.940;2023-09-30T08:59:13;97825.44;;;16.45;100.00
36598;BME280;22607;49.550;11.940;2023-09-30T09:01:41;97824.16;;;16.41;100.00
36598;BME280;22607;49.550;11.940;2023-09-30T09:04:07;97820.97;;;16.31;100.00
36598;BME280;22607;49.550;11.940;2023-09-30T09:06:34;97819.59;;;16.35;100.00
36598;BME280;22607;49.550;11.940;2023-09-30T09:09:17;97817.88;;;16.12;100.00
36598;BME280;22607;49.550;11.940;2023-09-30T09:11:45;97814.88;;;16.15;100.00
36598;BME280;22607;49.550;11.940;2023-09-30T09:14:13;97825.34;;;16.38;100.00
36598;BME280;22607;49.550;11.940;2023-09-30T09:16:51;97815.66;;;16.46;100.00
36598;BME280;22607;49.550;11.940;2023-09-30T09:19:19;97820.88;;;16.39;100.00
36598;BME280;22607;49.550;11.940;2023-09-30T09:21:55;97830.22;;;16.35;100.00
36598;BME280;22607;49.550;11.940;2023-09-30T09:24:33;97831.56;;;16.31;100.00
36598;BME280;22607;49.550;11.940;2023-09-30T09:27:09;97832.41;;;16.46;100.00
36598;BME280;22607;49.550;11.940;2023-09-30T09:29:38;97821.59;;;16.48;100.00
36598;BME280;22607;49.550;11.940;2023-09-30T09:32:10;97796.06;;;16.62;100.00
36598;BME280;22607;49.550;11.940;2023-09-30T09:34:42;97816.69;;;17.03;100.00
36598;BME280;22607;49.550;11.940;2023-09-30T09:37:17;97816.06;;;17.23;100.00
36598;BME280;22607;49.550;11.940;2023-09-30T09:39:55;97806.47;;;17.22;100.00
36598;BME280;22607;49.550;11.940;2023-09-30T09:42:28;97810.88;;;17.37;100.00
36598;BME280;22607;49.550;11.940;2023-09-30T09:45:04;97812.50;;;17.38;100.00
36598;BME280;22607;49.550;11.940;2023-09-30T09:47:32;97821.84;;;17.55;100.00
36598;BME280;22607;49.550;11.940;2023-09-30T09:50:03;97823.19;;;17.44;100.00
36598;BME280;22607;49.550;11.940;2023-09-30T09:52:31;97818.22;;;17.35;100.00
36598;BME280;22607;49.550;11.940;2023-09-30T09:55:01;97821.66;;;17.57;100.00
36598;BME280;22607;49.550;11.940;2023-09-30T09:57:30;97815.03;;;17.75;100.00
36598;BME280;22607;49.550;11.940;2023-09-30T09:59:58;97820.06;;;17.69;100.00
36598;BME280;22607;49.550;11.940;2023-09-30T10:02:26;97817.09;;;17.79;100.00
36598;BME280;22607;49.550;11.940;2023-09-30T10:05:14;97819.22;;;17.62;100.00
36598;BME280;22607;49.550;11.940;2023-09-30T10:08:03;97826.78;;;17.94;100.00
36598;BME280;22607;49.550;11.940;2023-09-30T10:10:38;97825.69;;;18.10;100.00
36598;BME280;22607;49.550;11.940;2023-09-30T10:13:05;97827.81;;;18.28;100.00
36598;BME280;22607;49.550;11.940;2023-09-30T10:18:08;97836.06;;;18.40;100.00
36598;BME280;22607;49.550;11.940;2023-09-30T10:20:42;97845.47;;;18.43;100.00
36598;BME280;22607;49.550;11.940;2023-09-30T10:28:47;97836.53;;;18.57;100.00
36598;BME280;22607;49.550;11.940;2023-09-30T10:31:21;97829.28;;;18.44;100.00
36598;BME280;22607;49.550;11.940;2023-09-30T10:36:50;97838.03;;;18.31;100.00
36598;BME280;22607;49.550;11.940;2023-09-30T10:39:57;97838.91;;;18.39;100.00
36598;BME280;22607;49.550;11.940;2023-09-30T10:42:46;97837.34;;;18.65;100.00
36598;BME280;22607;49.550;11.940;2023-09-30T10:45:51;97840.84;;;18.65;100.00
36598;BME280;22607;49.550;11.940;2023-09-30T10:50:52;97830.66;;;18.82;100.00
36598;BME280;22607;49.550;11.940;2023-09-30T10:53:21;97832.66;;;18.60;97.13
36598;BME280;22607;49.550;11.940;2023-09-30T10:55:58;97847.50;;;18.41;100.00
36598;BME280;22607;49.550;11.940;2023-09-30T10:58:49;97852.44;;;18.44;100.00
36598;BME280;22607;49.550;11.940;2023-09-30T11:01:17;97843.25;;;18.53;100.00
36598;BME280;22607;49.550;11.940;2023-09-30T11:03:46;97851.72;;;18.77;100.00
36598;BME280;22607;49.550;11.940;2023-09-30T11:06:17;97823.28;;;18.71;100.00
36598;BME280;22607;49.550;11.940;2023-09-30T11:11:16;97824.19;;;19.19;96.73
36598;BME280;22607;49.550;11.940;2023-09-30T11:13:43;97815.38;;;19.32;95.92
36598;BME280;22607;49.550;11.940;2023-09-30T11:16:10;97814.16;;;19.41;90.11
36598;BME280;22607;49.550;11.940;2023-09-30T11:18:36;97804.13;;;19.30;85.75
36598;BME280;22607;49.550;11.940;2023-09-30T11:21:08;97811.50;;;19.27;94.26
36598;BME280;22607;49.550;11.940;2023-09-30T11:23:37;97796.94;;;19.44;85.48
36598;BME280;22607;49.550;11.940;2023-09-30T11:26:04;97796.03;;;19.97;82.30
36598;BME280;22607;49.550;11.940;2023-09-30T11:28:39;97800.19;;;19.73;76.97
36598;BME280;22607;49.550;11.940;2023-09-30T11:31:12;97798.16;;;19.68;82.22
36598;BME280;22607;49.550;11.940;2023-09-30T11:33:52;97790.31;;;20.07;76.19
36598;BME280;22607;49.550;11.940;2023-09-30T11:36:20;97792.63;;;20.42;76.67
36598;BME280;22607;49.550;11.940;2023-09-30T11:38:49;97802.00;;;20.06;72.12
36598;BME280;22607;49.550;11.940;2023-09-30T11:41:18;97798.16;;;19.75;75.68
36598;BME280;22607;49.550;11.940;2023-09-30T11:44:04;97799.78;;;19.69;75.14
36598;BME280;22607;49.550;11.940;2023-09-30T11:46:48;97801.03;;;19.60;75.73
36598;BME280;22607;49.550;11.940;2023-09-30T11:49:33;97797.75;;;19.64;74.89
36598;BME280;22607;49.550;11.940;2023-09-30T11:52:11;97789.13;;;19.69;73.45
36598;BME280;22607;49.550;11.940;2023-09-30T11:54:39;97775.41;;;19.65;70.63
36598;BME280;22607;49.550;11.940;2023-09-30T11:57:12;97788.50;;;19.87;70.89
36598;BME280;22607;49.550;11.940;2023-09-30T11:59:43;97789.94;;;19.90;72.89
36598;BME280;22607;49.550;11.940;2023-09-30T12:02:12;97786.03;;;19.99;74.32
36598;BME280;22607;49.550;11.940;2023-09-30T12:04:44;97774.66;;;20.24;70.47
36598;BME280;22607;49.550;11.940;2023-09-30T12:07:12;97785.38;;;20.04;69.83
36598;BME280;22607;49.550;11.940;2023-09-30T12:09:39;97770.75;;;20.27;72.78
36598;BME280;22607;49.550;11.940;2023-09-30T12:12:07;97782.88;;;20.23;69.41
36598;BME280;22607;49.550;11.940;2023-09-30T12:14:38;97780.25;;;19.96;68.59
36598;BME280;22607;49.550;11.940;2023-09-30T12:17:05;97785.59;;;19.96;72.42
36598;BME280;22607;49.550;11.940;2023-09-30T12:19:32;97774.63;;;20.31;71.42
36598;BME280;22607;49.550;11.940;2023-09-30T12:21:59;97760.63;;;20.36;71.68
36598;BME280;22607;49.550;11.940;2023-09-30T12:24:25;97770.69;;;20.40;66.20
36598;BME280;22607;49.550;11.940;2023-09-30T12:26:53;97761.13;;;20.26;68.78
36598;BME280;22607;49.550;11.940;2023-09-30T12:29:22;97769.63;;;19.82;71.63
36598;BME280;22607;49.550;11.940;2023-09-30T12:31:51;97774.31;;;19.93;68.26
36598;BME280;22607;49.550;11.940;2023-09-30T12:34:20;97783.78;;;19.83;70.66
36598;BME280;22607;49.550;11.940;2023-09-30T12:36:50;97773.09;;;19.89;69.51
36598;BME280;22607;49.550;11.940;2023-09-30T12:39:17;97772.66;;;20.13;67.49
36598;BME280;22607;49.550;11.940;2023-09-30T12:41:54;97750.13;;;20.09;67.17
36598;BME280;22607;49.550;11.940;2023-09-30T12:44:21;97741.44;;;20.20;67.75
36598;BME280;22607;49.550;11.940;2023-09-30T12:46:49;97756.81;;;20.25;67.80
36598;BME280;22607;49.550;11.940;2023-09-30T12:49:21;97754.31;;;20.30;66.70
36598;BME280;22607;49.550;11.940;2023-09-30T12:51:51;97750.25;;;20.27;66.92
36598;BME280;22607;49.550;11.940;2023-09-30T12:54:19;97747.38;;;20.29;68.22
36598;BME280;22607;49.550;11.940;2023-09-30T12:56:46;97751.53;;;20.11;67.34
36598;BME280;22607;49.550;11.940;2023-09-30T12:59:14;97766.50;;;20.12;67.53
36598;BME280;22607;49.550;11.940;2023-09-30T13:01:41;97762.69;;;20.40;67.93
36598;BME280;22607;49.550;11.940;2023-09-30T13:04:08;97762.97;;;20.64;64.70
36598;BME280;22607;49.550;11.940;2023-09-30T13:06:35;97755.66;;;20.53;68.21